空港情報

日本の空港の気象及び、管制情報です。
気象情報はより詳細な情報が取得できる「AVIATION WEATER CENTER」 から取得しているため、VATSIMの気象情報と若干のタイムラグが生じることがあります。

VRCのフィールド設定用空港一覧はこちらをご覧ください。

RJCG Sapporo Control

RJCW / Wakkanai
VMC

NO RADAR

RADIO

08/26 2200x45

民間 civil

9999

250@14KT

30.09

RJCW 250500Z 25014KT 9999 FEW025 SCT035 01/M07 Q1019

RJER / Rishiri

NO RADAR

REMOTE

25/07 1800x45

民間 civil

過去5時間に発表されたMETARがありません。

RJEB / Monbetsu
VMC

NO RADAR

REMOTE

32/14 2000x45

民間 civil

9999

110@8KT

30.09

RJEB 250500Z 11008KT 9999 FEW040 M02/M12 Q1019

RJCM / Memanbetsu
VMC

NO RADAR

TOWER

36/18 2500x45

民間 civil

9999

110@3KT

30.12

RJCM 250500Z 11003KT 030V140 9999 FEW030 M02/M14 Q1020

RJEC / Asahikawa
VMC

NO RADAR

TOWER

34/16 2500x60

民間 civil

9999

000@2KT

30.06

RJEC 250500Z VRB02KT 9999 FEW030 M02/M09 Q1018

RJCN / Nakashibetsu
VMC

NO RADAR

RADIO

08/26 2000x45

民間 civil

9999

070@6KT

30.09

RJCN 250500Z 07006KT 040V110 9999 FEW040 M01/M14 Q1019

RJCK / Kushiro
VMC

NO RADAR

TOWER

17/35 2500x45

民間 civil

9999

210@10KT

30.09

RJCK 250500Z 21010KT 9999 FEW040 M01/M08 Q1019

RJCO / Sapporo
VMC

RJCO_APP

TOWER

14/32 1500x30

共用 dual

9999

070@2KT

30.12

RJCO 250500Z 07002KT 9999 FEW030 02/M06 Q1020

RJCJ / Chitose

RJCC_APP

TOWER

36R/18L 3000x60
36L/18R 2700x45

自衛隊 military

過去5時間に発表されたMETARがありません。

RJCC / NewChitose
VMC

RJCC_APP

TOWER

01L/19R 3000x60
01R/19L 3000x60

民間 civil

9999

360@7KT

30.12

RJCC 250500Z 36007KT 9999 VCSH FEW020 BKN035 01/M06 Q1020 RMK 1CU020 6CU035 A3013 SH W

RJCB / Obihiro
VMC

NO RADAR

TOWER

35/17 2500x45

民間 civil

9999

180@4KT

30.09

RJCB 250500Z 18004KT 140V250 9999 FEW040 M00/M08 Q1019

RJEO / Okushiri

NO RADAR

REMOTE

12/30 1500x45

民間 civil

過去5時間に発表されたMETARがありません。

RJCH / Hakodate
VMC

RJCH_APP

TOWER

12/30 3000x45

民間 civil

9999

210@4KT

30.09

RJCH 250500Z 21004KT 140V250 9999 FEW020 SCT035 BKN050 04/M04 Q1019

RJSA / Aomori
VMC

NO RADAR

TOWER

24/06 3000x60

民間 civil

9999

280@8KT

30.09

RJSA 250500Z 28008KT 240V300 9999 FEW020 SCT050 BKN150 03/M07 Q1019

RJSO / Ominato
VMC

RJSM_APP

TOWER

04/22 600x45

自衛隊 military

5000

260@3KT

30.12

RJSO 250412Z 26003KT 200V330 5000 -SHSN FEW015 SCT020 BKN040 01/00 Q1020 RMK 1CU015 4CU020 7CU040 A3015

RJSM / Misawa
VMC

RJSM_APP

TOWER

10/28 3050x45

共用 dual

9999

310@13KT

30.09

RJSM 250500Z 31013KT 9999 FEW015 SCT050 BKN170 06/M06 Q1019

RJSH / Hachinohe

RJSM_APP

TOWER

25/07 2250x45

自衛隊 military

過去5時間に発表されたMETARがありません。

RJSK / Akita
VMC

NO RADAR

TOWER

10/28 2500x60

民間 civil

9999

290@9KT

30.12

RJSK 250500Z 29009KT 9999 FEW040 BKN/// 07/M04 Q1020

RJSI / Hanamaki
VMC

NO RADAR

RADIO

20/02 2500x45

民間 civil

9999

250@5KT

30.06

RJSI 250500Z 25005KT 210V310 9999 FEW040 SCT080 BKN170 10/M08 Q1018

RJSR / Odate-Noshiro
VMC

NO RADAR

REMOTE

11/29 2000x45

民間 civil

9999

240@9KT

30.09

RJSR 250500Z 24009KT 9999 FEW030 SCT120 BKN/// 05/M04 Q1019

RJTG Tokyo Control

RJSY / Shonai
VMC

NO RADAR

RADIO

09/27 2000x45

民間 civil

9999

330@5KT

30.12

RJSY 250500Z 33005KT 290V010 9999 FEW050 SCT080 BKN090 07/M01 Q1020

RJSC / Yamagata
VMC

NO RADAR

RADIO

01/19 2000x45

民間 civil

9999

000@2KT

30.09

RJSC 250500Z VRB02KT 9999 FEW050 SCT080 BKN130 10/M01 Q1019

RJST / Matsushima

RJSS_APP

TOWER

07/25 2071x46
15/33 1500x46

自衛隊 military

過去5時間に発表されたMETARがありません。

RJSS / Sendai
VMC

RJSS_APP

TOWER

27/09 3000x45
12/30 1200x45

民間 civil

9999

120@9KT

30.09

RJSS 250500Z 12009KT 9999 FEW020 BKN060 BKN150 09/01 Q1019

RJSD / Sado
VMC

NO RADAR

REMOTE

10/28 890x25

民間 civil

9999

020@4KT

30.12

RJSD 250500Z AUTO 02004KT 350V060 9999 -RA OVC032 06/03 Q1020

RJSN / Niigata
VMC

RJSN_APP

TOWER

10/28 2500x45
04/22 1314x45

民間 civil

9999

010@6KT

30.12

RJSN 250500Z 01006KT 9999 -RA SCT030 BKN040 08/05 Q1020

RJSF / Fukushima
VMC

NO RADAR

RADIO

01/19 2500x60

民間 civil

8000

010@8KT

30.06

RJSF 250500Z 01008KT 8000 -RA FEW020 SCT035 BKN045 09/03 Q1018

RJAH / Ibaraki/Hyakuri
VMC

RJAH_APP

TOWER

03L/21R 2700x45
03R/21L 2700x45

共用 dual

9999

110@7KT

30.06

RJAH 250500Z 11007KT 070V140 9999 FEW035 BKN100 OVC140 13/03 Q1018

RJTT / Tokyo
VMC

RJTT_APP

TOWER

34LR/16RL 3000x60
04/22&05/23 2500x60

民間 civil

9999

000@1KT

30.06

RJTT 250500Z VRB01KT CAVOK 12/03 Q1018 BECMG 12005KT RMK A3008

RJAA / Narita
VMC

RJTT_APP

TOWER

34L/16R 4000x60
34R/16L 2500x60

民間 civil

9999

090@6KT

30.06

RJAA 250500Z 09006KT 9999 FEW025 BKN090 13/05 Q1018 NOSIG RMK 1CU025 7AC090 A3008

RJTL / Shimofusa

RJTT_APP

TOWER

19/01 2250x45

自衛隊 military

過去5時間に発表されたMETARがありません。

RJTE / Tateyama

RJTT_APP

TOWER

09/27 300x45

自衛隊 military

過去5時間に発表されたMETARがありません。

RJTO / Oshima
VMC

NO RADAR

RADIO

03/21 1800x45

民間 civil

9999

000@2KT

30.06

RJTO 250500Z VRB02KT CAVOK 14/04 Q1018

RJTK / Kisarazu

NO RADAR

TOWER

02/20 1830x45

自衛隊 military

過去5時間に発表されたMETARがありません。

RJAN / Niijima

NO RADAR

REMOTE

11/29 800x25

自衛隊 military

過去5時間に発表されたMETARがありません。

RJAZ / Kozushima

NO RADAR

REMOTE

11/29 800x25

民間 civil

過去5時間に発表されたMETARがありません。

RJTH / Hachijojima

NO RADAR

RADIO

26/08 2000x45

民間 civil

過去5時間に発表されたMETARがありません。

RJTF / Chofu
VMC

NO RADAR

Flight Service

35/17 800x30

民間 civil

9999

000@1KT

30.06

RJTF 250500Z VRB01KT 9999 FEW040 BKN100 13/00 Q1018

RJTQ / Miyake

NO RADAR

REMOTE

02/20 1200x30

民間 civil

過去5時間に発表されたMETARがありません。

RJTC / Tachikawa
VMC

NO RADAR

TOWER

01/19 900x45

自衛隊 military

9999

060@4KT

30.15

RJTC 250137Z 06004KT 020V100 9999 FEW030 BKN150 BKN230 13/M03 Q1021 RMK 1CU030 5AC150 6CI230 A3015

RJTA / Atsugi

NO RADAR

TOWER

01/19 2438x45

自衛隊 military

過去5時間に発表されたMETARがありません。

RJTU / Utsunomiya
VMC

RJTY_APP

TOWER

01/19 1700x45

自衛隊 military

9999

210@7KT

30.09

RJTU 250502Z 21007KT 9999 -RA FEW040 SCT050 BKN070 13/02 Q1019 RMK 1SC040 3SC050 7AC070 A3010

RJTJ / Iruma

RJTY_APP

TOWER

17/35 2000x45

自衛隊 military

過去5時間に発表されたMETARがありません。

RJTY / Yokota
VMC

RJTY_APP

TOWER

18/36 3353x60

自衛隊 military

9999

050@4KT

30.12

RJTY 250456Z AUTO 05004KT 10SM OVC100 12/00 A3012 RMK AO2 SLP207 T01191003 FZRANO $

RJAF / Matsumoto
VMC

NO RADAR

RADIO

18/36 2000x45

民間 civil

9999

350@4KT

30.03

RJAF 250500Z 35004KT 9999 VCSH FEW020 SCT050 BKN060 06/00 Q1017

RJNS / Shizuoka
VMC

NO RADAR

RADIO

30/12 2500x60

民間 civil

9999

000@2KT

30.06

RJNS 250500Z VRB02KT 9999 FEW030 BKN090 BKN100 12/05 Q1018

RJNY / Yaizu-Shizuhama
VMC

NO RADAR

TOWER

27/09 1500x45

自衛隊 military

9999

000@2KT

30.15

RJNY 250024Z VRB02KT 9999 FEW020 BKN100 BKN250 12/05 Q1021 RMK 1CU020 5AC100 A3017

RJNH / Hamamatsu

RJNH_APP

TOWER

09/27 2550x60

自衛隊 military

過去5時間に発表されたMETARがありません。

RJGG / Chubu
VMC

RJGG_APP

TOWER

36/18 3500x60

民間 civil

9999

330@6KT

30.06

RJGG 250500Z 33006KT 9999 FEW030 BKN080 10/04 Q1018 NOSIG

RJNA / Nagoya

RJGG_APP

TOWER

34/16 2740x45

民間 civil

過去5時間に発表されたMETARがありません。

RJNG / Gifu

RJGG_APP

TOWER

28/10 2710x46

自衛隊 military

過去5時間に発表されたMETARがありません。

RJOE / Akeno

RJOE_APP

TOWER

13/31 500x30
04/22 500x30

自衛隊 military

過去5時間に発表されたMETARがありません。

RJNK / Komatsu
VMC

RJNK_APP

TOWER

06/24 2700x45

共用 dual

9999

020@13KT

30.03

RJNK 250500Z 02013KT 9999 -RA FEW030 SCT060 OVC080 10/04 Q1017

RJNW / Noto
VMC

NO RADAR

RADIO

25/07 2000x45

民間 civil

5000

000@1KT

30.06

RJNW 250500Z VRB01KT 5000 -RA BR FEW005 SCT010 BKN030 08/06 Q1018

RJNT / Toyama
VMC

NO RADAR

TOWER

20/02 2000x45

民間 civil

8000

000@1KT

30.06

RJNT 250500Z VRB01KT 8000 -RA FEW012 BKN040 09/06 Q1018

RJNF / Fukui

NO RADAR

REMOTE

18/36 1200x30

民間 civil

過去5時間に発表されたMETARがありません。

RJBD / Nanki-Shirahama
VMC

NO RADAR

RADIO

15/33 2000x45

民間 civil

9999

150@6KT

30.03

RJBD 250500Z 15006KT 9999 FEW025 SCT030 BKN050 16/10 Q1017

RJOY / Yao
VMC

RJBB_APP

TOWER

27/09 1490x45
13/31 1200x30

民間 civil

9999

000@2KT

30.00

RJOY 250500Z VRB02KT 9999 FEW035 BKN070 13/02 Q1016

RJOO / Osaka
VMC

RJBB_APP

TOWER

32L/14R 3000x60
32R/14L 1830x45

民間 civil

9999

070@6KT

30.00

RJOO 250500Z 07006KT 9999 FEW030 BKN070 12/03 Q1016 RMK 1CU030 7AC070 A3003

RJOB / Okayama
VMC

RJBB_APP

TOWER

07/25 3000x45

民間 civil

9999

080@3KT

29.97

RJOB 250500Z 08003KT 9999 FEW040 BKN050 10/04 Q1015

RJBB / Kansai
VMC

RJBB_APP

TOWER

06R/24L 3500x60
06L/24R 4000x60

民間 civil

9999

030@5KT

30.03

RJBB 250500Z 03005KT 9999 FEW030 SCT070 BKN080 12/04 Q1017 NOSIG

RJBE / Kobe
VMC

RJBB_APP

TOWER

09/27 2500x60

民間 civil

9999

060@9KT

30.00

RJBE 250500Z 06009KT CAVOK 11/03 Q1016

RJBT / Tajima
VMC

NO RADAR

REMOTE

01/19 1200x30

民間 civil

9999

190@3KT

29.97

RJBT 250500Z 19003KT 9999 FEW050 SCT060 BKN080 07/04 Q1015

RJOR / Tottori
VMC

NO RADAR

RADIO

10/28 2000x45

民間 civil

9999

140@6KT

29.97

RJOR 250500Z 14006KT 9999 -RA FEW050 SCT060 BKN070 11/03 Q1015

RJNO / Oki

NO RADAR

REMOTE

07/25 2000x45

民間 civil

過去5時間に発表されたMETARがありません。

RJOH / Miho
VMC

RJOH_APP

TOWER

25/07 2500x45

共用 dual

9999

090@5KT

29.94

RJOH 250500Z 09005KT 9999 -RA FEW030 BKN050 OVC070 11/07 Q1014

RJOC / Izumo
VMC

RJOH_APP

RADIO

07/25 2000x45

共用 dual

9999

070@3KT

29.94

RJOC 250500Z 07003KT 9999 FEW040 BKN050 BKN060 09/04 Q1014

RJDG Fukuoka Control

RJOT / Takamatsu
VMC

RJBB_APP

TOWER

26/08 2500x60

民間 civil

9999

070@5KT

29.97

RJOT 250500Z 07005KT 020V100 9999 FEW040 BKN/// 12/07 Q1015

RJOK / Kochi
VMC

RJBB_APP

TOWER

32/14 2500x45

民間 civil

9999

150@4KT

30.00

RJOK 250500Z 15004KT 070V220 9999 FEW035 BKN/// 17/09 Q1016

RJOS / Tokushima
VMC

RJOS_APP

TOWER

29/11 2500x45

共用 dual

9999

080@4KT

30.00

RJOS 250500Z 08004KT 040V110 9999 FEW030 BKN080 BKN/// 13/07 Q1016

RJOA / Hiroshima
VMC

RJOA_APP

TOWER

10/28 3000x60

民間 civil

9999

140@5KT

29.97

RJOA 250500Z 14005KT 9999 FEW030 BKN050 12/03 Q1015

RJBH / Hiroshimanishi

NO RADAR

Flight Service

04/22 1800x45

民間 civil

過去5時間に発表されたMETARがありません。

RJOI / Iwakuni
VMC

RJOI_APP

TOWER

02/20 2440x60

共用 dual

9999

060@4KT

30.00

RJOI 250455Z 06004KT 9999 FEW030 SCT065 BKN200 14/09 A3000 RMK SLP159 T01390089

RJOM / Matsuyama
VMC

RJOI_APP

TOWER

14/32 2500x45

民間 civil

9999

360@12KT

29.97

RJOM 250500Z 36012KT 9999 FEW030 BKN/// 15/08 Q1015

RJOZ / Ozuki

RJFZ_APP

TOWER

35/17 1201x61
12/30 899x46

自衛隊 military

過去5時間に発表されたMETARがありません。

RJOF / Hofu
VMC

RJFZ_APP

TOWER

30/12 1180x60
01/19 1480x45

自衛隊 military

9999

100@8KT

30.03

RJOF 250322Z 10008KT 060V130 9999 FEW030 BKN230 15/09 Q1017 RMK 1CU030 A3004

RJDC / Yamaguchi-Ube
VMC

RJFZ_APP

RADIO

07/25 2500x45

民間 civil

9999

070@12KT

29.94

RJDC 250500Z 07012KT 9999 FEW025 SCT050 BKN070 13/10 Q1014

RJFR / Kitakyushu
VMC

RJFZ_APP

TOWER

18/36 2500x60

民間 civil

9999

070@10KT

29.94

RJFR 250500Z 07010KT 9999 FEW030 BKN060 BKN/// 13/10 Q1014

RJFZ / Tsuiki

RJFZ_APP

TOWER

25/07 2399x46

自衛隊 military

過去5時間に発表されたMETARがありません。

RJOW / Iwami
VMC

NO RADAR

REMOTE

11/29 2000x45

民間 civil

9999

160@11KT

29.91

RJOW 250500Z 16011KT CAVOK 16/04 Q1013

RJDT / Tsushima
VMC

NO RADAR

REMOTE

32/14 1900x45

民間 civil

9999

000@8G20KT

29.88

RJDT 250500Z VRB08G20KT 9999 -RA FEW010 SCT020 BKN030 16/12 Q1012

RJFF / Fukuoka
VMC

RJFF_APP

TOWER

16/34 2800x60

民間 civil

9999

150@13KT

29.94

RJFF 250500Z 15013KT 9999 FEW030 SCT040 BKN/// 19/10 Q1014 NOSIG

RJFS / Saga
VMC

RJFF_APP

RADIO

29/11 2000x45

民間 civil

9999

160@10KT

29.97

RJFS 250500Z 16010KT 9999 FEW030 BKN040 17/11 Q1015

RJFA / Ashiya

RJFF_APP

TOWER

12/30 1640x46

自衛隊 military

過去5時間に発表されたMETARがありません。

RJDB / Iki

RJFF_APP

REMOTE

20/02 1200x30

民間 civil

過去5時間に発表されたMETARがありません。

RJFO / Oita
VMC

RJFO_APP

TOWER

01/19 3000x45

民間 civil

9999

190@4KT

29.94

RJFO 250500Z 19004KT 160V220 9999 FEW030 BKN/// 17/09 Q1014

RJFU / Nagasaki
VMC

RJFU_APP

TOWER

32/14 3000x60

民間 civil

9999

190@9KT

29.97

RJFU 250500Z 19009KT 140V250 9999 FEW025 SCT030 BKN045 20/13 Q1015

RJDU / Omura

RJFU_APP

TOWER

18/36 1200x30

自衛隊 military

過去5時間に発表されたMETARがありません。

RJFE / Fukue
VMC

NO RADAR

RADIO

03/21 2000x45

民間 civil

9999

180@10KT

29.94

RJFE 250500Z 18010KT 9999 FEW015 SCT025 BKN070 18/16 Q1014

RJDO / Ojika

NO RADAR

REMOTE

03/21 800x30

民間 civil

過去5時間に発表されたMETARがありません。

RJDK / Kamigoto
VMC

NO RADAR

REMOTE

17/35 800x30

民間 civil

9999

210@13G24KT

29.94

RJDK 250500Z AUTO 21013G24KT 170V260 9999 SCT011 BKN014 OVC060 17/15 Q1014

RJDA / Amakusa

NO RADAR

Flight Service

31/13 1000x30

民間 civil

過去5時間に発表されたMETARがありません。

RJFT / Kumamoto
VMC

RJFT_APP

TOWER

07/25 3000x45

民間 civil

9999

220@12G22KT

30.00

RJFT 250500Z 22012G22KT 9999 FEW030 BKN040 BKN/// 21/12 Q1016

RJFN / Nyutabaru

RJFM_APP

TOWER

28/10 2701x46

自衛隊 military

過去5時間に発表されたMETARがありません。

RJFM / Miyazaki
VMC

RJFM_APP

TOWER

27/09 2500x45

民間 civil

9999

000@1KT

30.00

RJFM 250500Z VRB01KT 9999 FEW030 SCT040 BKN050 20/12 Q1016

RJFK / Kagoshima
VMC

RJFK_APP

TOWER

34/16 3000x45

民間 civil

9999

150@4KT

30.03

RJFK 250500Z 15004KT 9999 VCSH FEW015 BKN025 BKN050 16/12 Q1017 RMK 2CU015 5CU025 6SC050 A3004

RJFY / Kanoya

RJFY_APP

TOWER

26L/08R 2250x45
26R/08L 1200x40

自衛隊 military

過去5時間に発表されたMETARがありません。

RJFG / Tanegashima
VMC

NO RADAR

RADIO

31/13 2000x45

民間 civil

9999

240@10KT

30.03

RJFG 250500Z 24010KT 210V270 9999 FEW020 SCT050 BKN080 20/14 Q1017

RJFC / Yakushima

NO RADAR

REMOTE

14/32 1500x45

民間 civil

過去5時間に発表されたMETARがありません。

RJBG Kobe Control

ROAH / Naha
VMC

ROAH_APP

TOWER

36/18 3000x45

共用 dual

9999

180@11KT

30.06

ROAH 250500Z 18011KT 9999 FEW009 25/21 Q1018 RMK 2CU009 A3008

RORA / Aguni

ROAH_APP

REMOTE

01/19 800x25

民間 civil

過去5時間に発表されたMETARがありません。

ROKJ / Kumejima

ROAH_APP

REMOTE

03/21 2000x45

民間 civil

過去5時間に発表されたMETARがありません。

RODN / Kadena
VMC

ROAH_APP

TOWER

05L/23R 3688x91
05R/23L 3688x61

自衛隊 military

9999

190@8KT

30.08

RODN 250506Z 19008KT 10SM SCT020 BKN026 BKN034 OVC095 25/16 A3008 RMK AO2A CIG 026V095 BKN026 V SCT CIG 017 RWY23 SLP192 FZRANO $

ROTM / Futenma
VMC

ROAH_APP

TOWER

06/24 2740x45

自衛隊 military

9999

150@9KT

30.10

ROTM 250456Z 15009KT 10SM BKN020 BKN080 24/20 A3010 RMK AO2 SLP178 T02440200 $

RORS / Shimojishima
VMC

RORS_APP

TOWER

17/35 3000x60

民間 civil

9999

160@13KT

30.06

RORS 250500Z 16013KT 9999 FEW007 SCT012 BKN070 26/22 Q1018

ROMY / Miyako
VMC

RORS_APP

TOWER

04/22 2000x45

民間 civil

9999

150@10KT

30.06

ROMY 250500Z 15010KT 9999 SCT013 BKN100 26/21 Q1018

ROIG / New Ishigaki
VMC

RORS_APP

TOWER

22/04 2000x45

民間 civil

9999

130@8KT

30.03

ROIG 250500Z 13008KT 100V190 9999 FEW010 SCT070 BKN100 25/23 Q1017

RORT / Tarama

RORS_APP

REMOTE

36/18 1500x45

民間 civil

過去5時間に発表されたMETARがありません。

RJKA / Amami
VMC

NO RADAR

RADIO

03/21 2000x45

民間 civil

9999

210@12KT

30.06

RJKA 250500Z 21012KT 9999 FEW015 SCT040 BKN060 24/19 Q1018

RJKI / Kikai
VMC

NO RADAR

REMOTE

07/25 1200x30

民間 civil

9999

210@8KT

30.06

RJKI 250500Z AUTO 21008KT 150V260 9999 FEW011 SCT031 BKN060 24/20 Q1018

RJKN / Tokunoshima

NO RADAR

REMOTE

19/01 2000x45

民間 civil

過去5時間に発表されたMETARがありません。

RJKB / Okierabu

NO RADAR

REMOTE

04/22 1350x45

民間 civil

過去5時間に発表されたMETARがありません。

RORY / Yoron
VMC

NO RADAR

REMOTE

32/14 1320x30

民間 civil

9999

170@9KT

30.06

RORY 250500Z AUTO 17009KT 9999 FEW007 OVC080 23/21 Q1018

RORK / Kitadaito
VMC

NO RADAR

REMOTE

03/21 1500x45

民間 civil

9999

160@15KT

30.09

RORK 250500Z AUTO 16015KT 9999 SCT010 BKN016 BKN090 25/21 Q1019

ROMD / Minami-daito
IMC

NO RADAR

REMOTE

02/20 1500x45

民間 civil

9999

160@9KT

30.09

ROMD 250500Z AUTO 16009KT 120V200 9999 SCT007 BKN009 24/21 Q1019

ROYN / Yonaguni
VMC

NO RADAR

REMOTE

26/08 2000x45

民間 civil

9999

190@7KT

30.03

ROYN 250500Z AUTO 19007KT 9999 FEW013 BKN080 25/22 Q1017

RORH / Hateruma

NO RADAR

REMOTE

02/20 800x25

民間 civil

過去5時間に発表されたMETARがありません。

ROKR / Kerama

NO RADAR

REMOTE

02/20 800x25

民間 civil

過去5時間に発表されたMETARがありません。